createdAt,value
2022-11-21T00:01:26.001Z,17.40
2022-11-21T00:04:07.728Z,17.00
2022-11-21T00:06:56.118Z,17.50
2022-11-21T00:09:38.764Z,16.87
2022-11-21T00:12:09.818Z,17.50
2022-11-21T00:14:39.003Z,17.87
2022-11-21T00:17:10.806Z,18.20
2022-11-21T00:19:49.735Z,17.47
2022-11-21T00:22:38.887Z,17.43
2022-11-21T00:25:21.330Z,17.30
2022-11-21T01:09:23.164Z,18.40
2022-11-21T01:17:13.852Z,16.80
2022-11-21T01:20:21.983Z,16.77
2022-11-21T01:23:12.045Z,17.80
2022-11-21T01:26:51.685Z,17.10
2022-11-21T01:34:31.700Z,19.30
2022-11-21T01:37:32.353Z,17.23
2022-11-21T01:40:16.679Z,17.47
2022-11-21T01:43:07.171Z,17.10
2022-11-21T01:46:04.778Z,16.87
2022-11-21T01:48:45.800Z,17.57
2022-11-21T01:51:27.485Z,17.50
2022-11-21T01:54:11.035Z,17.90
2022-11-21T01:56:49.044Z,17.00
2022-11-21T01:59:36.273Z,17.57
2022-11-21T02:02:25.779Z,18.10
2022-11-21T02:05:23.378Z,17.07
2022-11-21T02:08:20.319Z,16.90
2022-11-21T02:11:03.049Z,16.40
2022-11-21T02:13:52.328Z,17.30
2022-11-21T02:16:32.828Z,16.83
2022-11-21T02:19:23.789Z,17.03
2022-11-21T02:22:12.082Z,16.87
2022-11-21T02:25:08.586Z,17.00
2022-11-21T02:27:44.266Z,16.70
2022-11-21T02:30:38.639Z,19.00
2022-11-21T02:33:29.463Z,21.50
2022-11-21T02:36:46.188Z,16.70
2022-11-21T02:39:36.950Z,16.53
2022-11-21T02:42:28.925Z,17.90
2022-11-21T02:45:18.777Z,16.07
2022-11-21T02:48:03.611Z,17.13
2022-11-21T02:50:45.519Z,16.60
2022-11-21T02:53:30.279Z,17.33
2022-11-21T02:56:04.993Z,18.23
2022-11-21T02:58:42.447Z,19.53
2022-11-21T03:01:17.608Z,17.87
2022-11-21T03:03:59.335Z,19.33
2022-11-21T03:06:41.893Z,16.97
2022-11-21T03:09:21.866Z,16.37
2022-11-21T03:11:56.303Z,16.50
2022-11-21T03:14:32.208Z,15.50
2022-11-21T03:17:11.317Z,16.67
2022-11-21T03:19:52.617Z,15.53
2022-11-21T03:22:30.335Z,16.50
2022-11-21T03:25:07.070Z,16.50
2022-11-21T03:28:04.134Z,17.00
2022-11-21T03:30:50.181Z,16.50
2022-11-21T03:33:27.981Z,17.50
2022-11-21T03:36:08.928Z,16.70
2022-11-21T03:38:38.481Z,15.90
2022-11-21T03:41:45.847Z,15.43
2022-11-21T03:44:29.829Z,16.70
2022-11-21T03:47:21.022Z,17.10
2022-11-21T03:49:59.577Z,16.17
2022-11-21T03:52:54.910Z,16.43
2022-11-21T03:55:41.386Z,16.00
2022-11-21T03:58:21.489Z,16.13
2022-11-21T04:00:53.652Z,16.33
2022-11-21T04:03:24.634Z,15.30
2022-11-21T04:06:16.574Z,15.30
2022-11-21T04:08:51.433Z,15.10
2022-11-21T04:11:40.226Z,15.10
2022-11-21T04:17:01.178Z,19.17
2022-11-21T04:19:44.369Z,19.33
2022-11-21T04:22:17.124Z,19.57
2022-11-21T04:24:58.026Z,21.40
2022-11-21T04:27:34.752Z,21.80
2022-11-21T04:30:09.519Z,20.83
2022-11-21T04:32:41.704Z,22.30
2022-11-21T04:35:18.029Z,22.47
2022-11-21T04:38:01.693Z,20.73
2022-11-21T04:40:34.454Z,21.47
2022-11-21T04:43:16.961Z,22.50
2022-11-21T04:45:56.116Z,19.00
2022-11-21T04:48:38.136Z,21.17
2022-11-21T04:51:14.752Z,20.73
2022-11-21T04:54:06.780Z,20.97
2022-11-21T04:56:52.386Z,20.20
2022-11-21T04:59:31.846Z,20.10
2022-11-21T05:02:08.230Z,21.67
2022-11-21T05:04:46.804Z,20.20
2022-11-21T05:07:42.786Z,19.87
2022-11-21T05:10:14.198Z,21.20
2022-11-21T05:13:03.856Z,19.97
2022-11-21T05:15:40.723Z,21.90
2022-11-21T05:18:18.437Z,22.37
2022-11-21T05:20:55.862Z,19.67
2022-11-21T05:24:33.516Z,20.20
2022-11-21T05:27:22.120Z,23.03
2022-11-21T05:30:33.953Z,22.13
2022-11-21T05:33:20.442Z,20.17
2022-11-21T05:39:51.563Z,19.50
2022-11-21T05:43:24.185Z,21.10
2022-11-21T05:49:19.190Z,20.40
2022-11-21T05:58:05.208Z,19.63
2022-11-21T06:03:59.317Z,21.20
2022-11-21T06:06:49.240Z,23.30
2022-11-21T06:13:28.759Z,23.60
2022-11-21T06:19:14.783Z,21.20
2022-11-21T06:21:48.215Z,22.63
2022-11-21T06:24:26.096Z,24.13
2022-11-21T06:27:00.304Z,22.73
2022-11-21T06:29:31.285Z,23.70
2022-11-21T06:32:02.170Z,23.27
2022-11-21T06:34:36.725Z,22.90
2022-11-21T06:37:32.260Z,21.87
2022-11-21T06:40:07.702Z,21.60
2022-11-21T06:42:40.161Z,23.87
2022-11-21T06:45:19.983Z,21.90
2022-11-21T06:47:52.092Z,21.57
2022-11-21T06:50:29.423Z,22.23
2022-11-21T06:53:23.054Z,24.00
2022-11-21T06:55:51.555Z,23.80
2022-11-21T06:58:19.826Z,25.50
2022-11-21T07:03:49.326Z,22.63
2022-11-21T07:06:17.886Z,23.97
2022-11-21T07:09:00.064Z,22.93
2022-11-21T07:11:42.387Z,21.33
2022-11-21T07:14:11.810Z,21.53
2022-11-21T07:16:56.093Z,21.53
2022-11-21T07:19:27.262Z,22.37
2022-11-21T07:21:56.628Z,20.80
2022-11-21T07:24:26.853Z,21.27
2022-11-21T07:26:55.523Z,22.47
2022-11-21T07:29:23.975Z,21.97
2022-11-21T07:31:54.411Z,21.50
2022-11-21T07:34:22.783Z,24.13
2022-11-21T07:36:53.745Z,22.00
2022-11-21T07:39:24.677Z,18.40
2022-11-21T07:41:53.558Z,24.13
2022-11-21T07:44:27.198Z,20.70
2022-11-21T07:47:01.480Z,22.20
2022-11-21T07:49:30.672Z,22.33
2022-11-21T07:52:02.647Z,14.70
2022-11-21T07:55:21.718Z,16.73
2022-11-21T07:58:20.656Z,15.27
2022-11-21T08:01:00.940Z,16.57
2022-11-21T08:03:38.252Z,17.40
2022-11-21T08:06:09.398Z,15.30
2022-11-21T08:08:39.172Z,18.40
2022-11-21T08:11:08.998Z,15.40
2022-11-21T08:13:37.569Z,16.93
2022-11-21T08:16:06.118Z,14.67
2022-11-21T08:18:35.947Z,16.20
2022-11-21T08:25:05.961Z,16.97
2022-11-21T08:28:34.798Z,17.43
2022-11-21T08:38:08.915Z,19.50
2022-11-21T08:41:19.892Z,16.93
2022-11-21T08:43:54.589Z,18.43
2022-11-21T08:46:28.194Z,18.40
2022-11-21T08:49:00.123Z,17.40
2022-11-21T08:55:10.997Z,16.90
2022-11-21T09:00:58.916Z,17.93
2022-11-21T09:03:43.080Z,16.90
2022-11-21T09:06:14.097Z,18.70
2022-11-21T09:09:05.935Z,19.13
2022-11-21T09:12:21.257Z,16.53
2022-11-21T09:15:09.910Z,17.20
2022-11-21T09:18:04.639Z,17.73
2022-11-21T09:20:48.453Z,17.03
2022-11-21T09:23:57.469Z,20.53
2022-11-21T09:27:00.673Z,17.73
2022-11-21T09:29:42.140Z,17.70
2022-11-21T09:35:49.027Z,17.03
2022-11-21T09:38:26.890Z,19.90
2022-11-21T09:41:45.781Z,26.97
2022-11-21T09:47:46.182Z,19.90
2022-11-21T09:50:40.573Z,17.50
2022-11-21T09:53:17.807Z,17.80
2022-11-21T09:56:05.851Z,18.03
2022-11-21T09:58:51.304Z,18.17
2022-11-21T10:01:22.117Z,17.53
2022-11-21T10:07:02.249Z,16.70
2022-11-21T10:09:46.521Z,18.03
2022-11-21T10:16:12.627Z,17.37
2022-11-21T10:19:09.763Z,18.33
2022-11-21T10:21:55.174Z,16.90
2022-11-21T10:24:39.733Z,15.60
2022-11-21T10:27:28.392Z,16.83
2022-11-21T10:30:19.017Z,16.60
2022-11-21T10:32:58.298Z,16.30
2022-11-21T10:35:44.605Z,15.97
2022-11-21T10:38:47.204Z,16.30
2022-11-21T10:41:35.327Z,16.40
2022-11-21T10:44:30.659Z,18.23
2022-11-21T10:47:18.273Z,17.20
2022-11-21T10:49:59.452Z,16.23
2022-11-21T10:52:53.730Z,15.33
2022-11-21T10:55:32.574Z,19.07
2022-11-21T10:58:26.046Z,18.13
2022-11-21T11:01:09.971Z,14.10
2022-11-21T11:07:17.638Z,15.43
2022-11-21T11:09:58.785Z,16.47
2022-11-21T11:12:51.252Z,14.97
2022-11-21T11:15:47.240Z,14.90
2022-11-21T11:18:32.216Z,16.37
2022-11-21T11:21:33.952Z,15.60
2022-11-21T11:24:37.544Z,17.33
2022-11-21T11:27:30.236Z,15.57
2022-11-21T11:30:25.098Z,15.63
2022-11-21T11:32:58.044Z,17.20
2022-11-21T11:35:38.088Z,16.37
2022-11-21T11:38:17.157Z,15.43
2022-11-21T11:40:58.744Z,16.63
2022-11-21T11:44:05.187Z,15.97
2022-11-21T11:47:04.972Z,15.80
2022-11-21T11:50:02.320Z,17.20
2022-11-21T11:53:01.072Z,17.77
2022-11-21T11:55:52.911Z,17.70
2022-11-21T11:58:45.323Z,15.60
2022-11-21T12:01:21.569Z,16.13
2022-11-21T12:04:16.503Z,17.73
2022-11-21T12:08:05.810Z,14.67
2022-11-21T12:09:55.009Z,15.40
2022-11-21T12:13:01.904Z,15.40
2022-11-21T12:16:10.179Z,15.37
2022-11-21T12:19:04.330Z,14.73
2022-11-21T12:21:43.778Z,16.20
2022-11-21T12:24:27.855Z,14.63
2022-11-21T12:27:12.700Z,15.33
2022-11-21T12:30:04.258Z,15.10
2022-11-21T12:32:56.115Z,15.07
2022-11-21T12:35:51.109Z,15.67
2022-11-21T12:38:51.004Z,15.80
2022-11-21T12:41:50.828Z,15.57
2022-11-21T12:44:47.954Z,14.40
2022-11-21T12:47:57.569Z,14.67
2022-11-21T12:51:07.424Z,15.40
2022-11-21T12:54:16.336Z,15.40
2022-11-21T12:57:00.462Z,14.97
2022-11-21T12:59:43.943Z,15.40
2022-11-21T13:02:43.440Z,15.20
2022-11-21T13:05:22.245Z,15.30
2022-11-21T13:08:24.017Z,14.50
2022-11-21T13:11:20.142Z,15.47
2022-11-21T13:14:05.083Z,14.83
2022-11-21T13:16:48.217Z,15.00
2022-11-21T13:19:26.440Z,14.63
2022-11-21T13:22:09.537Z,14.13
2022-11-21T13:25:03.284Z,13.97
2022-11-21T13:27:40.964Z,14.43
2022-11-21T13:30:49.553Z,14.97
2022-11-21T13:33:53.489Z,15.00
2022-11-21T13:36:59.844Z,14.70
2022-11-21T13:39:36.371Z,15.13
2022-11-21T13:42:40.793Z,14.53
2022-11-21T13:45:54.328Z,15.00
2022-11-21T13:49:00.120Z,14.80
2022-11-21T13:51:52.984Z,14.47
2022-11-21T13:54:51.801Z,14.87
2022-11-21T13:57:57.122Z,14.60
2022-11-21T14:00:43.962Z,14.73
2022-11-21T14:03:53.226Z,14.50
2022-11-21T14:06:56.122Z,15.00
2022-11-21T14:09:38.866Z,14.10
2022-11-21T14:16:08.859Z,13.77
2022-11-21T14:25:16.317Z,14.70
2022-11-21T14:27:58.967Z,15.33
2022-11-21T14:31:50.800Z,14.60
2022-11-21T14:34:39.843Z,15.00
2022-11-21T14:58:15.504Z,14.20
2022-11-21T15:01:32.297Z,13.90
2022-11-21T15:08:48.042Z,14.30
2022-11-21T15:15:39.065Z,15.53
2022-11-21T15:22:41.613Z,12.20
2022-11-21T15:26:02.230Z,14.97
2022-11-21T15:29:23.119Z,14.50
2022-11-21T15:35:32.210Z,14.80
2022-11-21T15:38:07.370Z,13.23
2022-11-21T15:40:36.364Z,14.17
2022-11-21T15:43:15.994Z,15.53
2022-11-21T15:45:50.344Z,14.63
2022-11-21T15:48:19.539Z,15.53
2022-11-21T15:50:58.841Z,14.33
2022-11-21T15:53:34.069Z,14.47
2022-11-21T15:56:08.231Z,16.93
2022-11-21T15:57:13.720Z,15.80
2022-11-21T15:58:40.302Z,14.40
2022-11-21T16:01:25.493Z,17.07
2022-11-21T16:04:00.541Z,14.40
2022-11-21T16:06:35.755Z,14.63
2022-11-21T16:09:15.950Z,14.60
2022-11-21T16:11:51.041Z,14.60
2022-11-21T16:14:25.670Z,15.80
2022-11-21T16:17:05.655Z,14.30
2022-11-21T16:19:36.139Z,16.20
2022-11-21T16:22:10.765Z,13.80
2022-11-21T16:24:45.523Z,15.27
2022-11-21T16:27:20.592Z,14.33
2022-11-21T16:29:49.801Z,14.70
2022-11-21T16:32:21.569Z,14.50
2022-11-21T16:34:51.969Z,13.93
2022-11-21T16:37:28.135Z,16.00
2022-11-21T16:40:10.741Z,15.33
2022-11-21T16:42:40.930Z,13.70
2022-11-21T16:45:18.971Z,14.40
2022-11-21T16:47:50.228Z,14.07
2022-11-21T16:50:22.345Z,14.10
2022-11-21T16:53:08.280Z,14.73
2022-11-21T16:55:37.570Z,14.10
2022-11-21T16:58:09.856Z,14.00
2022-11-21T17:03:52.324Z,14.10
2022-11-21T17:06:31.440Z,13.90
2022-11-21T17:09:29.868Z,14.27
2022-11-21T17:12:03.075Z,14.00
2022-11-21T17:14:35.553Z,14.30
2022-11-21T17:17:09.813Z,16.50
2022-11-21T17:19:42.237Z,14.20
2022-11-21T17:22:21.526Z,13.73
2022-11-21T17:25:01.135Z,14.80
2022-11-21T17:27:42.514Z,13.90
2022-11-21T17:30:15.126Z,13.70
2022-11-21T17:32:55.764Z,13.20
2022-11-21T17:35:47.934Z,13.90
2022-11-21T17:38:44.223Z,14.60
2022-11-21T17:41:31.982Z,16.10
2022-11-21T17:44:30.319Z,13.60
2022-11-21T17:50:14.129Z,14.50
2022-11-21T17:53:55.456Z,33.07
2022-11-21T17:57:14.796Z,14.70
2022-11-21T18:00:36.606Z,16.53
2022-11-21T18:03:20.066Z,14.27
2022-11-21T18:06:32.275Z,13.30
2022-11-21T18:09:15.629Z,13.20
2022-11-21T18:12:24.518Z,13.30
2022-11-21T18:15:21.075Z,13.07
2022-11-21T18:18:15.420Z,12.17
2022-11-21T18:21:03.634Z,12.97
2022-11-21T18:24:07.804Z,13.30
2022-11-21T18:27:00.617Z,13.67
2022-11-21T18:33:03.390Z,13.90
2022-11-21T18:35:40.665Z,13.93
2022-11-21T18:38:47.448Z,14.20
2022-11-21T18:41:47.168Z,14.20
2022-11-21T18:44:43.377Z,14.10
2022-11-21T18:47:20.514Z,14.17
2022-11-21T18:49:50.873Z,14.73
2022-11-21T18:55:43.999Z,15.00
2022-11-21T18:58:53.070Z,15.30
2022-11-21T19:02:02.368Z,15.10
2022-11-21T19:04:44.308Z,20.37
2022-11-21T19:07:49.720Z,14.30
2022-11-21T19:10:44.864Z,14.60
2022-11-21T19:13:45.497Z,14.70
2022-11-21T19:16:36.885Z,15.20
2022-11-21T19:19:38.514Z,15.70
2022-11-21T19:25:50.788Z,15.70
2022-11-21T19:31:46.621Z,15.67
2022-11-21T19:38:35.615Z,15.23
2022-11-21T19:41:26.176Z,15.40
2022-11-21T19:44:07.270Z,15.13
2022-11-21T19:46:46.608Z,15.87
2022-11-21T19:49:34.888Z,15.50
2022-11-21T19:52:18.351Z,15.47
2022-11-21T19:55:12.749Z,15.70
2022-11-21T19:58:00.456Z,15.73
2022-11-21T20:00:32.316Z,15.70
2022-11-21T20:03:03.651Z,16.33
2022-11-21T20:05:49.517Z,15.40
2022-11-21T20:15:10.454Z,16.10
2022-11-21T20:18:09.328Z,16.40
2022-11-21T20:21:18.223Z,16.20
2022-11-21T20:24:03.716Z,15.90
2022-11-21T20:27:03.597Z,16.57
2022-11-21T20:30:01.366Z,16.33
2022-11-21T20:32:52.719Z,16.30
2022-11-21T20:36:21.642Z,16.10
2022-11-21T20:39:20.250Z,16.53
2022-11-21T20:42:09.325Z,16.30
2022-11-21T20:48:12.617Z,16.47
2022-11-21T20:51:50.954Z,17.80
2022-11-21T20:53:51.968Z,15.77
2022-11-21T20:56:23.731Z,16.50
2022-11-21T20:59:06.557Z,16.00
2022-11-21T21:01:52.647Z,16.57
2022-11-21T21:04:47.177Z,16.63
2022-11-21T21:07:42.394Z,16.03
2022-11-21T21:11:04.403Z,15.90
2022-11-21T21:13:56.734Z,16.00
2022-11-21T21:17:01.370Z,16.17
2022-11-21T21:19:46.971Z,15.40
2022-11-21T21:22:25.715Z,16.00
2022-11-21T21:25:10.796Z,16.40
2022-11-21T21:27:39.164Z,18.77
2022-11-21T21:30:11.576Z,16.57
2022-11-21T21:32:39.826Z,16.10
2022-11-21T21:35:15.509Z,16.30
2022-11-21T21:38:08.900Z,16.33
2022-11-21T21:43:50.796Z,16.30
2022-11-21T21:46:56.952Z,16.50
2022-11-21T21:49:31.488Z,17.10
2022-11-21T21:52:10.432Z,17.30
2022-11-21T21:54:51.498Z,17.10
2022-11-21T21:57:48.324Z,16.77
2022-11-21T22:01:00.119Z,17.37
2022-11-21T22:03:51.477Z,16.70
2022-11-21T22:06:37.143Z,16.40
2022-11-21T22:09:18.134Z,16.47
2022-11-21T22:12:04.656Z,16.50
2022-11-21T22:14:52.493Z,16.90
2022-11-21T22:17:35.779Z,17.90
2022-11-21T22:20:17.490Z,17.97
2022-11-21T22:23:01.324Z,16.60
2022-11-21T22:28:57.275Z,16.90
2022-11-21T22:31:37.197Z,17.50
2022-11-21T22:34:34.442Z,16.60
2022-11-21T22:37:32.729Z,17.03
2022-11-21T22:40:17.229Z,16.77
2022-11-21T22:42:58.730Z,17.20
2022-11-21T22:45:47.083Z,16.90
2022-11-21T22:48:30.347Z,17.27
2022-11-21T22:51:02.038Z,16.60
2022-11-21T22:53:37.150Z,16.47
2022-11-21T22:56:08.866Z,16.60
2022-11-21T22:58:59.236Z,16.53
2022-11-21T23:01:30.081Z,16.40
2022-11-21T23:03:58.777Z,16.60
2022-11-21T23:06:28.477Z,16.97
2022-11-21T23:08:59.120Z,16.50
2022-11-21T23:11:34.896Z,16.77
2022-11-21T23:14:09.117Z,18.03
2022-11-21T23:16:46.761Z,16.33
2022-11-21T23:19:22.944Z,19.90
2022-11-21T23:21:55.795Z,16.10
2022-11-21T23:24:25.585Z,18.57
2022-11-21T23:26:53.972Z,16.50
2022-11-21T23:29:32.345Z,18.27
2022-11-21T23:32:03.283Z,17.67
2022-11-21T23:34:42.915Z,16.30
2022-11-21T23:37:31.240Z,16.90
2022-11-21T23:40:07.445Z,16.40
2022-11-21T23:42:56.447Z,16.60
2022-11-21T23:48:40.437Z,17.00
2022-11-21T23:51:15.092Z,16.93
2022-11-21T23:53:46.491Z,16.30
2022-11-21T23:56:32.921Z,16.57
2022-11-21T23:59:18.133Z,17.20
